sensor_id;sensor_type;location;lat;lon;timestamp;P1;durP1;ratioP1;P2;durP2;ratioP2
10132;SDS011;5106;50.926;7.080;2023-04-21T00:00:00;14.40;;;12.90;;
10132;SDS011;5106;50.926;7.080;2023-04-21T00:02:26;13.23;;;11.30;;
10132;SDS011;5106;50.926;7.080;2023-04-21T00:04:52;13.60;;;11.87;;
10132;SDS011;5106;50.926;7.080;2023-04-21T00:07:20;14.47;;;12.40;;
10132;SDS011;5106;50.926;7.080;2023-04-21T00:09:46;14.60;;;12.30;;
10132;SDS011;5106;50.926;7.080;2023-04-21T00:12:12;14.77;;;12.60;;
10132;SDS011;5106;50.926;7.080;2023-04-21T00:14:37;15.13;;;12.73;;
10132;SDS011;5106;50.926;7.080;2023-04-21T00:17:04;14.13;;;12.20;;
10132;SDS011;5106;50.926;7.080;2023-04-21T00:19:30;13.23;;;11.83;;
10132;SDS011;5106;50.926;7.080;2023-04-21T00:21:56;15.63;;;12.70;;
10132;SDS011;5106;50.926;7.080;2023-04-21T00:24:25;15.23;;;13.47;;
10132;SDS011;5106;50.926;7.080;2023-04-21T00:26:51;14.07;;;11.63;;
10132;SDS011;5106;50.926;7.080;2023-04-21T00:29:17;15.00;;;12.40;;
10132;SDS011;5106;50.926;7.080;2023-04-21T00:31:42;15.13;;;13.43;;
10132;SDS011;5106;50.926;7.080;2023-04-21T00:34:08;14.73;;;13.10;;
10132;SDS011;5106;50.926;7.080;2023-04-21T00:36:33;13.60;;;12.07;;
10132;SDS011;5106;50.926;7.080;2023-04-21T00:38:59;15.40;;;12.93;;
10132;SDS011;5106;50.926;7.080;2023-04-21T00:41:26;16.23;;;13.48;;
10132;SDS011;5106;50.926;7.080;2023-04-21T00:44:26;14.47;;;12.97;;
10132;SDS011;5106;50.926;7.080;2023-04-21T00:46:44;15.77;;;14.13;;
10132;SDS011;5106;50.926;7.080;2023-04-21T00:49:10;14.70;;;13.03;;
10132;SDS011;5106;50.926;7.080;2023-04-21T00:51:37;15.27;;;12.83;;
10132;SDS011;5106;50.926;7.080;2023-04-21T00:54:04;15.37;;;13.40;;
10132;SDS011;5106;50.926;7.080;2023-04-21T00:56:31;14.13;;;12.63;;
10132;SDS011;5106;50.926;7.080;2023-04-21T00:58:58;15.57;;;13.30;;
10132;SDS011;5106;50.926;7.080;2023-04-21T01:01:25;18.30;;;13.10;;
10132;SDS011;5106;50.926;7.080;2023-04-21T01:03:55;15.13;;;13.17;;
10132;SDS011;5106;50.926;7.080;2023-04-21T01:06:22;15.97;;;13.93;;
10132;SDS011;5106;50.926;7.080;2023-04-21T01:08:48;15.15;;;12.73;;
10132;SDS011;5106;50.926;7.080;2023-04-21T01:11:17;14.20;;;12.23;;
10132;SDS011;5106;50.926;7.080;2023-04-21T01:13:43;16.23;;;13.27;;
10132;SDS011;5106;50.926;7.080;2023-04-21T01:16:08;15.33;;;13.63;;
10132;SDS011;5106;50.926;7.080;2023-04-21T01:18:40;14.93;;;13.33;;
10132;SDS011;5106;50.926;7.080;2023-04-21T01:21:06;15.80;;;14.03;;
10132;SDS011;5106;50.926;7.080;2023-04-21T01:23:32;16.87;;;13.37;;
10132;SDS011;5106;50.926;7.080;2023-04-21T01:25:58;16.33;;;13.63;;
10132;SDS011;5106;50.926;7.080;2023-04-21T01:28:24;16.57;;;14.77;;
10132;SDS011;5106;50.926;7.080;2023-04-21T01:30:50;15.97;;;13.90;;
10132;SDS011;5106;50.926;7.080;2023-04-21T01:33:16;16.63;;;13.77;;
10132;SDS011;5106;50.926;7.080;2023-04-21T01:35:43;15.97;;;13.77;;
10132;SDS011;5106;50.926;7.080;2023-04-21T01:38:09;15.70;;;13.60;;
10132;SDS011;5106;50.926;7.080;2023-04-21T01:40:35;15.80;;;14.10;;
10132;SDS011;5106;50.926;7.080;2023-04-21T01:43:01;18.83;;;14.23;;
10132;SDS011;5106;50.926;7.080;2023-04-21T01:45:28;16.40;;;14.65;;
10132;SDS011;5106;50.926;7.080;2023-04-21T01:47:54;16.80;;;14.73;;
10132;SDS011;5106;50.926;7.080;2023-04-21T01:50:20;16.17;;;14.10;;
10132;SDS011;5106;50.926;7.080;2023-04-21T01:52:45;16.83;;;14.73;;
10132;SDS011;5106;50.926;7.080;2023-04-21T01:55:11;15.60;;;13.70;;
10132;SDS011;5106;50.926;7.080;2023-04-21T01:57:36;15.87;;;13.57;;
10132;SDS011;5106;50.926;7.080;2023-04-21T02:00:02;15.83;;;14.10;;
10132;SDS011;5106;50.926;7.080;2023-04-21T02:02:29;16.17;;;13.67;;
10132;SDS011;5106;50.926;7.080;2023-04-21T02:04:54;15.57;;;13.60;;
10132;SDS011;5106;50.926;7.080;2023-04-21T02:07:20;15.77;;;13.90;;
10132;SDS011;5106;50.926;7.080;2023-04-21T02:09:46;15.77;;;14.07;;
10132;SDS011;5106;50.926;7.080;2023-04-21T02:12:11;15.97;;;14.27;;
10132;SDS011;5106;50.926;7.080;2023-04-21T02:14:37;15.23;;;13.53;;
10132;SDS011;5106;50.926;7.080;2023-04-21T02:17:02;18.50;;;14.33;;
10132;SDS011;5106;50.926;7.080;2023-04-21T02:19:28;17.47;;;14.37;;
10132;SDS011;5106;50.926;7.080;2023-04-21T02:21:54;16.73;;;14.27;;
10132;SDS011;5106;50.926;7.080;2023-04-21T02:24:20;15.40;;;13.73;;
10132;SDS011;5106;50.926;7.080;2023-04-21T02:26:46;18.07;;;14.87;;
10132;SDS011;5106;50.926;7.080;2023-04-21T02:29:11;18.20;;;14.30;;
10132;SDS011;5106;50.926;7.080;2023-04-21T02:31:37;16.83;;;14.13;;
10132;SDS011;5106;50.926;7.080;2023-04-21T02:34:03;17.57;;;15.03;;
10132;SDS011;5106;50.926;7.080;2023-04-21T02:36:29;16.87;;;14.53;;
10132;SDS011;5106;50.926;7.080;2023-04-21T02:38:55;19.67;;;14.87;;
10132;SDS011;5106;50.926;7.080;2023-04-21T02:41:20;18.30;;;15.57;;
10132;SDS011;5106;50.926;7.080;2023-04-21T02:43:47;17.07;;;14.80;;
10132;SDS011;5106;50.926;7.080;2023-04-21T02:46:13;16.67;;;14.63;;
10132;SDS011;5106;50.926;7.080;2023-04-21T02:48:38;16.47;;;14.53;;
10132;SDS011;5106;50.926;7.080;2023-04-21T02:51:04;16.87;;;15.07;;
10132;SDS011;5106;50.926;7.080;2023-04-21T02:53:29;16.63;;;14.70;;
10132;SDS011;5106;50.926;7.080;2023-04-21T02:55:55;17.37;;;14.23;;
10132;SDS011;5106;50.926;7.080;2023-04-21T02:58:21;17.57;;;14.73;;
10132;SDS011;5106;50.926;7.080;2023-04-21T03:00:47;16.93;;;14.83;;
10132;SDS011;5106;50.926;7.080;2023-04-21T03:03:14;17.73;;;15.83;;
10132;SDS011;5106;50.926;7.080;2023-04-21T03:05:40;19.47;;;14.87;;
10132;SDS011;5106;50.926;7.080;2023-04-21T03:08:05;18.83;;;14.70;;
10132;SDS011;5106;50.926;7.080;2023-04-21T03:10:31;18.30;;;15.23;;
10132;SDS011;5106;50.926;7.080;2023-04-21T03:12:56;18.97;;;15.13;;
10132;SDS011;5106;50.926;7.080;2023-04-21T03:15:22;17.40;;;15.10;;
10132;SDS011;5106;50.926;7.080;2023-04-21T03:17:48;17.53;;;15.53;;
10132;SDS011;5106;50.926;7.080;2023-04-21T03:20:13;17.40;;;14.83;;
10132;SDS011;5106;50.926;7.080;2023-04-21T03:22:40;18.07;;;15.00;;
10132;SDS011;5106;50.926;7.080;2023-04-21T03:25:05;18.20;;;14.53;;
10132;SDS011;5106;50.926;7.080;2023-04-21T03:27:31;16.50;;;14.37;;
10132;SDS011;5106;50.926;7.080;2023-04-21T03:29:58;16.13;;;13.70;;
10132;SDS011;5106;50.926;7.080;2023-04-21T03:32:23;17.33;;;14.50;;
10132;SDS011;5106;50.926;7.080;2023-04-21T03:34:49;17.47;;;15.00;;
10132;SDS011;5106;50.926;7.080;2023-04-21T03:37:15;15.10;;;13.33;;
10132;SDS011;5106;50.926;7.080;2023-04-21T03:39:40;18.07;;;14.33;;
10132;SDS011;5106;50.926;7.080;2023-04-21T03:42:06;15.97;;;14.27;;
10132;SDS011;5106;50.926;7.080;2023-04-21T03:44:32;16.07;;;14.03;;
10132;SDS011;5106;50.926;7.080;2023-04-21T03:46:57;17.13;;;14.53;;
10132;SDS011;5106;50.926;7.080;2023-04-21T03:49:23;17.40;;;14.03;;
10132;SDS011;5106;50.926;7.080;2023-04-21T03:51:49;16.73;;;13.53;;
10132;SDS011;5106;50.926;7.080;2023-04-21T03:54:14;15.13;;;13.20;;
10132;SDS011;5106;50.926;7.080;2023-04-21T03:56:40;16.53;;;14.10;;
10132;SDS011;5106;50.926;7.080;2023-04-21T03:59:06;15.57;;;13.90;;
10132;SDS011;5106;50.926;7.080;2023-04-21T04:01:32;15.47;;;13.20;;
10132;SDS011;5106;50.926;7.080;2023-04-21T04:03:58;14.80;;;13.20;;
10132;SDS011;5106;50.926;7.080;2023-04-21T04:06:24;16.63;;;13.83;;
10132;SDS011;5106;50.926;7.080;2023-04-21T04:08:50;14.93;;;13.00;;
10132;SDS011;5106;50.926;7.080;2023-04-21T04:11:16;14.77;;;12.10;;
10132;SDS011;5106;50.926;7.080;2023-04-21T04:13:41;15.50;;;12.67;;
10132;SDS011;5106;50.926;7.080;2023-04-21T04:16:07;14.80;;;12.77;;
10132;SDS011;5106;50.926;7.080;2023-04-21T04:18:32;13.83;;;12.37;;
10132;SDS011;5106;50.926;7.080;2023-04-21T04:20:59;13.87;;;11.83;;
10132;SDS011;5106;50.926;7.080;2023-04-21T04:23:32;14.83;;;12.77;;
10132;SDS011;5106;50.926;7.080;2023-04-21T04:25:58;14.87;;;13.10;;
10132;SDS011;5106;50.926;7.080;2023-04-21T04:28:25;16.03;;;13.40;;
10132;SDS011;5106;50.926;7.080;2023-04-21T04:30:51;15.83;;;12.37;;
10132;SDS011;5106;50.926;7.080;2023-04-21T04:33:17;16.03;;;13.90;;
10132;SDS011;5106;50.926;7.080;2023-04-21T04:35:42;16.27;;;13.67;;
10132;SDS011;5106;50.926;7.080;2023-04-21T04:38:08;17.17;;;14.47;;
10132;SDS011;5106;50.926;7.080;2023-04-21T04:40:35;15.17;;;12.93;;
10132;SDS011;5106;50.926;7.080;2023-04-21T04:43:00;14.77;;;12.77;;
10132;SDS011;5106;50.926;7.080;2023-04-21T04:45:26;15.43;;;13.03;;
10132;SDS011;5106;50.926;7.080;2023-04-21T04:47:53;16.67;;;13.03;;
10132;SDS011;5106;50.926;7.080;2023-04-21T04:50:19;14.80;;;12.50;;
10132;SDS011;5106;50.926;7.080;2023-04-21T04:52:45;16.53;;;12.87;;
10132;SDS011;5106;50.926;7.080;2023-04-21T04:55:11;16.07;;;12.87;;
10132;SDS011;5106;50.926;7.080;2023-04-21T04:57:38;14.70;;;12.50;;
10132;SDS011;5106;50.926;7.080;2023-04-21T05:00:04;16.83;;;12.30;;
10132;SDS011;5106;50.926;7.080;2023-04-21T05:02:32;14.00;;;12.33;;
10132;SDS011;5106;50.926;7.080;2023-04-21T05:04:58;14.27;;;11.07;;
10132;SDS011;5106;50.926;7.080;2023-04-21T05:07:23;13.83;;;11.53;;
10132;SDS011;5106;50.926;7.080;2023-04-21T05:09:49;13.97;;;12.27;;
10132;SDS011;5106;50.926;7.080;2023-04-21T05:12:15;13.50;;;11.97;;
10132;SDS011;5106;50.926;7.080;2023-04-21T05:14:40;15.77;;;12.40;;
10132;SDS011;5106;50.926;7.080;2023-04-21T05:17:06;15.97;;;13.07;;
10132;SDS011;5106;50.926;7.080;2023-04-21T05:19:34;15.00;;;11.93;;
10132;SDS011;5106;50.926;7.080;2023-04-21T05:22:00;14.33;;;12.40;;
10132;SDS011;5106;50.926;7.080;2023-04-21T05:24:26;15.40;;;12.97;;
10132;SDS011;5106;50.926;7.080;2023-04-21T05:26:51;16.47;;;12.70;;
10132;SDS011;5106;50.926;7.080;2023-04-21T05:29:17;17.70;;;13.70;;
10132;SDS011;5106;50.926;7.080;2023-04-21T05:31:42;14.87;;;12.73;;
10132;SDS011;5106;50.926;7.080;2023-04-21T05:34:08;15.23;;;12.47;;
10132;SDS011;5106;50.926;7.080;2023-04-21T05:36:33;14.07;;;12.57;;
10132;SDS011;5106;50.926;7.080;2023-04-21T05:38:59;14.03;;;12.47;;
10132;SDS011;5106;50.926;7.080;2023-04-21T05:41:25;16.13;;;13.20;;
10132;SDS011;5106;50.926;7.080;2023-04-21T05:43:50;23.20;;;13.60;;
10132;SDS011;5106;50.926;7.080;2023-04-21T05:46:16;15.87;;;12.93;;
10132;SDS011;5106;50.926;7.080;2023-04-21T05:48:41;16.80;;;14.00;;
10132;SDS011;5106;50.926;7.080;2023-04-21T05:51:11;21.97;;;15.27;;
10132;SDS011;5106;50.926;7.080;2023-04-21T05:53:37;18.50;;;15.17;;
10132;SDS011;5106;50.926;7.080;2023-04-21T05:56:03;18.60;;;15.30;;
10132;SDS011;5106;50.926;7.080;2023-04-21T05:58:29;20.03;;;14.70;;
10132;SDS011;5106;50.926;7.080;2023-04-21T06:00:55;17.60;;;13.63;;
10132;SDS011;5106;50.926;7.080;2023-04-21T06:03:21;16.93;;;13.73;;
10132;SDS011;5106;50.926;7.080;2023-04-21T06:05:52;17.83;;;14.40;;
10132;SDS011;5106;50.926;7.080;2023-04-21T06:08:21;17.57;;;14.17;;
10132;SDS011;5106;50.926;7.080;2023-04-21T06:10:47;18.57;;;13.60;;
10132;SDS011;5106;50.926;7.080;2023-04-21T06:13:13;16.17;;;13.77;;
10132;SDS011;5106;50.926;7.080;2023-04-21T06:15:38;21.47;;;14.93;;
10132;SDS011;5106;50.926;7.080;2023-04-21T06:18:04;23.77;;;14.93;;
10132;SDS011;5106;50.926;7.080;2023-04-21T06:20:30;18.63;;;15.33;;
10132;SDS011;5106;50.926;7.080;2023-04-21T06:22:55;20.47;;;15.43;;
10132;SDS011;5106;50.926;7.080;2023-04-21T06:25:21;19.63;;;15.60;;
10132;SDS011;5106;50.926;7.080;2023-04-21T06:27:46;21.70;;;14.70;;
10132;SDS011;5106;50.926;7.080;2023-04-21T06:30:12;21.80;;;14.63;;
10132;SDS011;5106;50.926;7.080;2023-04-21T06:32:38;17.57;;;14.53;;
10132;SDS011;5106;50.926;7.080;2023-04-21T06:35:04;21.23;;;15.73;;
10132;SDS011;5106;50.926;7.080;2023-04-21T06:37:30;19.60;;;16.03;;
10132;SDS011;5106;50.926;7.080;2023-04-21T06:39:55;17.87;;;15.33;;
10132;SDS011;5106;50.926;7.080;2023-04-21T06:42:21;21.23;;;15.43;;
10132;SDS011;5106;50.926;7.080;2023-04-21T06:44:46;16.60;;;14.53;;
10132;SDS011;5106;50.926;7.080;2023-04-21T06:47:12;20.53;;;15.57;;
10132;SDS011;5106;50.926;7.080;2023-04-21T06:49:38;19.73;;;15.43;;
10132;SDS011;5106;50.926;7.080;2023-04-21T06:52:04;21.87;;;16.27;;
10132;SDS011;5106;50.926;7.080;2023-04-21T06:54:29;19.00;;;15.77;;
10132;SDS011;5106;50.926;7.080;2023-04-21T06:56:55;21.40;;;16.33;;
10132;SDS011;5106;50.926;7.080;2023-04-21T06:59:21;19.73;;;16.27;;
10132;SDS011;5106;50.926;7.080;2023-04-21T07:01:47;20.83;;;16.50;;
10132;SDS011;5106;50.926;7.080;2023-04-21T07:04:18;20.93;;;16.90;;
10132;SDS011;5106;50.926;7.080;2023-04-21T07:06:45;22.53;;;17.43;;
10132;SDS011;5106;50.926;7.080;2023-04-21T07:09:11;21.07;;;17.97;;
10132;SDS011;5106;50.926;7.080;2023-04-21T07:11:36;24.67;;;18.57;;
10132;SDS011;5106;50.926;7.080;2023-04-21T07:14:02;21.77;;;17.97;;
10132;SDS011;5106;50.926;7.080;2023-04-21T07:16:28;22.33;;;17.97;;
10132;SDS011;5106;50.926;7.080;2023-04-21T07:18:54;21.60;;;17.57;;
10132;SDS011;5106;50.926;7.080;2023-04-21T07:21:20;20.47;;;16.57;;
10132;SDS011;5106;50.926;7.080;2023-04-21T07:23:46;23.17;;;17.85;;
10132;SDS011;5106;50.926;7.080;2023-04-21T07:26:11;25.95;;;20.10;;
10132;SDS011;5106;50.926;7.080;2023-04-21T07:28:37;21.77;;;17.13;;
10132;SDS011;5106;50.926;7.080;2023-04-21T07:31:05;20.97;;;17.13;;
10132;SDS011;5106;50.926;7.080;2023-04-21T07:33:31;22.60;;;17.70;;
10132;SDS011;5106;50.926;7.080;2023-04-21T07:35:56;22.80;;;17.58;;
10132;SDS011;5106;50.926;7.080;2023-04-21T07:38:22;23.60;;;18.30;;
10132;SDS011;5106;50.926;7.080;2023-04-21T07:40:48;22.50;;;18.23;;
10132;SDS011;5106;50.926;7.080;2023-04-21T07:43:13;24.42;;;18.40;;
10132;SDS011;5106;50.926;7.080;2023-04-21T07:45:39;26.13;;;20.10;;
10132;SDS011;5106;50.926;7.080;2023-04-21T07:48:04;24.75;;;19.05;;
10132;SDS011;5106;50.926;7.080;2023-04-21T07:50:31;27.02;;;20.35;;
10132;SDS011;5106;50.926;7.080;2023-04-21T07:52:57;23.13;;;19.23;;
10132;SDS011;5106;50.926;7.080;2023-04-21T07:55:23;24.13;;;19.02;;
10132;SDS011;5106;50.926;7.080;2023-04-21T07:57:48;22.70;;;18.48;;
10132;SDS011;5106;50.926;7.080;2023-04-21T08:00:14;23.55;;;19.20;;
10132;SDS011;5106;50.926;7.080;2023-04-21T08:02:40;23.92;;;18.77;;
10132;SDS011;5106;50.926;7.080;2023-04-21T08:05:06;22.13;;;17.95;;
10132;SDS011;5106;50.926;7.080;2023-04-21T08:07:32;21.48;;;17.85;;
10132;SDS011;5106;50.926;7.080;2023-04-21T08:09:58;23.73;;;19.13;;
10132;SDS011;5106;50.926;7.080;2023-04-21T08:12:24;20.63;;;17.17;;
10132;SDS011;5106;50.926;7.080;2023-04-21T08:14:50;20.65;;;16.98;;
10132;SDS011;5106;50.926;7.080;2023-04-21T08:17:16;21.20;;;17.70;;
10132;SDS011;5106;50.926;7.080;2023-04-21T08:19:41;23.00;;;18.02;;
10132;SDS011;5106;50.926;7.080;2023-04-21T08:22:07;21.60;;;17.52;;
10132;SDS011;5106;50.926;7.080;2023-04-21T08:24:33;20.55;;;17.50;;
10132;SDS011;5106;50.926;7.080;2023-04-21T08:26:59;23.25;;;17.52;;
10132;SDS011;5106;50.926;7.080;2023-04-21T08:29:26;22.20;;;18.48;;
10132;SDS011;5106;50.926;7.080;2023-04-21T08:31:52;22.67;;;17.73;;
10132;SDS011;5106;50.926;7.080;2023-04-21T08:34:17;21.05;;;17.00;;
10132;SDS011;5106;50.926;7.080;2023-04-21T08:36:43;20.23;;;16.48;;
10132;SDS011;5106;50.926;7.080;2023-04-21T08:39:11;21.33;;;17.75;;
10132;SDS011;5106;50.926;7.080;2023-04-21T08:41:37;18.92;;;16.20;;
10132;SDS011;5106;50.926;7.080;2023-04-21T08:44:05;21.95;;;16.08;;
10132;SDS011;5106;50.926;7.080;2023-04-21T08:46:30;20.52;;;16.17;;
10132;SDS011;5106;50.926;7.080;2023-04-21T08:48:57;20.20;;;16.23;;
10132;SDS011;5106;50.926;7.080;2023-04-21T08:51:23;19.33;;;15.10;;
10132;SDS011;5106;50.926;7.080;2023-04-21T08:53:53;20.27;;;15.63;;
10132;SDS011;5106;50.926;7.080;2023-04-21T08:56:19;19.20;;;15.95;;
10132;SDS011;5106;50.926;7.080;2023-04-21T08:58:45;19.63;;;16.35;;
10132;SDS011;5106;50.926;7.080;2023-04-21T09:01:10;20.08;;;16.92;;
10132;SDS011;5106;50.926;7.080;2023-04-21T09:03:36;20.77;;;15.75;;
10132;SDS011;5106;50.926;7.080;2023-04-21T09:06:06;18.02;;;14.93;;
10132;SDS011;5106;50.926;7.080;2023-04-21T09:08:33;17.10;;;14.80;;
10132;SDS011;5106;50.926;7.080;2023-04-21T09:11:01;19.10;;;15.70;;
10132;SDS011;5106;50.926;7.080;2023-04-21T09:13:30;17.77;;;15.73;;
10132;SDS011;5106;50.926;7.080;2023-04-21T09:16:00;17.35;;;15.43;;
10132;SDS011;5106;50.926;7.080;2023-04-21T09:18:28;18.90;;;15.63;;
10132;SDS011;5106;50.926;7.080;2023-04-21T09:21:07;19.75;;;16.38;;
10132;SDS011;5106;50.926;7.080;2023-04-21T09:23:45;20.42;;;16.77;;
10132;SDS011;5106;50.926;7.080;2023-04-21T09:26:16;20.83;;;16.20;;
10132;SDS011;5106;50.926;7.080;2023-04-21T09:28:43;21.08;;;16.63;;
10132;SDS011;5106;50.926;7.080;2023-04-21T09:31:13;17.90;;;15.00;;
10132;SDS011;5106;50.926;7.080;2023-04-21T09:33:47;23.17;;;16.77;;
10132;SDS011;5106;50.926;7.080;2023-04-21T09:36:21;20.77;;;16.88;;
10132;SDS011;5106;50.926;7.080;2023-04-21T09:38:58;20.02;;;16.27;;
10132;SDS011;5106;50.926;7.080;2023-04-21T09:41:26;19.95;;;16.17;;
10132;SDS011;5106;50.926;7.080;2023-04-21T09:43:51;21.40;;;17.42;;
10132;SDS011;5106;50.926;7.080;2023-04-21T09:46:18;20.55;;;16.75;;
10132;SDS011;5106;50.926;7.080;2023-04-21T09:48:45;18.45;;;15.98;;
10132;SDS011;5106;50.926;7.080;2023-04-21T09:51:12;20.95;;;15.25;;
10132;SDS011;5106;50.926;7.080;2023-04-21T09:53:40;17.80;;;15.25;;
10132;SDS011;5106;50.926;7.080;2023-04-21T09:56:12;18.63;;;15.10;;
10132;SDS011;5106;50.926;7.080;2023-04-21T09:58:43;18.48;;;15.43;;
10132;SDS011;5106;50.926;7.080;2023-04-21T10:01:12;17.77;;;15.60;;
10132;SDS011;5106;50.926;7.080;2023-04-21T10:03:38;19.13;;;15.10;;
10132;SDS011;5106;50.926;7.080;2023-04-21T10:06:05;17.75;;;14.07;;
10132;SDS011;5106;50.926;7.080;2023-04-21T10:08:32;17.58;;;14.20;;
10132;SDS011;5106;50.926;7.080;2023-04-21T10:10:58;17.33;;;14.38;;
10132;SDS011;5106;50.926;7.080;2023-04-21T10:13:24;17.27;;;13.88;;
10132;SDS011;5106;50.926;7.080;2023-04-21T10:16:00;17.05;;;14.05;;
10132;SDS011;5106;50.926;7.080;2023-04-21T10:18:42;15.23;;;13.57;;
10132;SDS011;5106;50.926;7.080;2023-04-21T10:21:10;14.77;;;12.57;;
10132;SDS011;5106;50.926;7.080;2023-04-21T10:23:42;15.80;;;13.05;;
10132;SDS011;5106;50.926;7.080;2023-04-21T10:26:16;16.23;;;12.60;;
10132;SDS011;5106;50.926;7.080;2023-04-21T10:31:25;15.60;;;12.55;;
10132;SDS011;5106;50.926;7.080;2023-04-21T10:39:11;15.02;;;11.48;;
10132;SDS011;5106;50.926;7.080;2023-04-21T10:47:25;14.00;;;10.90;;
10132;SDS011;5106;50.926;7.080;2023-04-21T10:49:51;14.20;;;11.80;;
10132;SDS011;5106;50.926;7.080;2023-04-21T10:52:17;14.13;;;11.02;;
10132;SDS011;5106;50.926;7.080;2023-04-21T10:57:14;12.13;;;10.20;;
10132;SDS011;5106;50.926;7.080;2023-04-21T10:59:42;12.80;;;10.57;;
10132;SDS011;5106;50.926;7.080;2023-04-21T11:02:18;14.07;;;11.77;;
10132;SDS011;5106;50.926;7.080;2023-04-21T11:04:43;13.63;;;10.85;;
10132;SDS011;5106;50.926;7.080;2023-04-21T11:07:14;11.75;;;9.80;;
10132;SDS011;5106;50.926;7.080;2023-04-21T11:09:41;10.82;;;9.07;;
10132;SDS011;5106;50.926;7.080;2023-04-21T11:12:12;12.50;;;9.43;;
10132;SDS011;5106;50.926;7.080;2023-04-21T11:14:39;10.05;;;7.85;;
10132;SDS011;5106;50.926;7.080;2023-04-21T11:17:10;13.00;;;9.10;;
10132;SDS011;5106;50.926;7.080;2023-04-21T11:19:37;10.20;;;8.35;;
10132;SDS011;5106;50.926;7.080;2023-04-21T11:22:03;8.45;;;7.28;;
10132;SDS011;5106;50.926;7.080;2023-04-21T11:24:29;10.30;;;7.50;;
10132;SDS011;5106;50.926;7.080;2023-04-21T11:26:55;8.95;;;8.00;;
10132;SDS011;5106;50.926;7.080;2023-04-21T11:29:22;9.75;;;8.10;;
10132;SDS011;5106;50.926;7.080;2023-04-21T11:31:48;8.80;;;6.97;;
10132;SDS011;5106;50.926;7.080;2023-04-21T11:34:14;9.10;;;7.35;;
10132;SDS011;5106;50.926;7.080;2023-04-21T11:36:44;10.27;;;7.93;;
10132;SDS011;5106;50.926;7.080;2023-04-21T11:39:15;10.25;;;7.82;;
10132;SDS011;5106;50.926;7.080;2023-04-21T11:41:45;10.80;;;8.35;;
10132;SDS011;5106;50.926;7.080;2023-04-21T11:44:12;9.50;;;8.40;;
10132;SDS011;5106;50.926;7.080;2023-04-21T11:46:45;9.98;;;8.48;;
10132;SDS011;5106;50.926;7.080;2023-04-21T11:49:11;9.45;;;8.27;;
10132;SDS011;5106;50.926;7.080;2023-04-21T11:51:38;9.50;;;7.82;;
10132;SDS011;5106;50.926;7.080;2023-04-21T11:54:09;8.85;;;7.38;;
10132;SDS011;5106;50.926;7.080;2023-04-21T11:56:36;8.13;;;7.00;;
10132;SDS011;5106;50.926;7.080;2023-04-21T11:59:11;10.60;;;8.23;;
10132;SDS011;5106;50.926;7.080;2023-04-21T12:04:12;8.68;;;7.47;;
10132;SDS011;5106;50.926;7.080;2023-04-21T12:06:43;10.25;;;7.38;;
10132;SDS011;5106;50.926;7.080;2023-04-21T12:09:15;9.13;;;6.53;;
10132;SDS011;5106;50.926;7.080;2023-04-21T12:11:45;6.55;;;5.70;;
10132;SDS011;5106;50.926;7.080;2023-04-21T12:14:16;7.00;;;5.63;;
10132;SDS011;5106;50.926;7.080;2023-04-21T12:16:43;8.35;;;7.38;;
10132;SDS011;5106;50.926;7.080;2023-04-21T12:19:12;9.52;;;8.50;;
10132;SDS011;5106;50.926;7.080;2023-04-21T12:21:58;10.57;;;8.63;;
10132;SDS011;5106;50.926;7.080;2023-04-21T12:24:24;9.45;;;8.43;;
10132;SDS011;5106;50.926;7.080;2023-04-21T12:26:49;9.43;;;8.40;;
10132;SDS011;5106;50.926;7.080;2023-04-21T12:29:15;8.77;;;7.82;;
10132;SDS011;5106;50.926;7.080;2023-04-21T12:31:41;9.85;;;8.23;;
10132;SDS011;5106;50.926;7.080;2023-04-21T12:34:06;8.55;;;7.68;;
10132;SDS011;5106;50.926;7.080;2023-04-21T12:36:32;9.25;;;8.10;;
10132;SDS011;5106;50.926;7.080;2023-04-21T12:38:58;8.93;;;7.75;;
10132;SDS011;5106;50.926;7.080;2023-04-21T12:41:24;11.30;;;8.93;;
10132;SDS011;5106;50.926;7.080;2023-04-21T12:43:50;10.45;;;8.25;;
10132;SDS011;5106;50.926;7.080;2023-04-21T12:46:16;11.52;;;9.15;;
10132;SDS011;5106;50.926;7.080;2023-04-21T12:48:41;10.95;;;8.30;;
10132;SDS011;5106;50.926;7.080;2023-04-21T12:51:07;10.05;;;8.73;;
10132;SDS011;5106;50.926;7.080;2023-04-21T12:53:32;9.88;;;8.85;;
10132;SDS011;5106;50.926;7.080;2023-04-21T12:55:58;9.52;;;8.52;;
10132;SDS011;5106;50.926;7.080;2023-04-21T12:58:24;9.82;;;8.82;;
10132;SDS011;5106;50.926;7.080;2023-04-21T13:00:49;8.93;;;7.57;;
10132;SDS011;5106;50.926;7.080;2023-04-21T13:03:15;8.77;;;7.72;;
10132;SDS011;5106;50.926;7.080;2023-04-21T13:05:40;9.20;;;8.23;;
10132;SDS011;5106;50.926;7.080;2023-04-21T13:08:08;8.57;;;7.70;;
10132;SDS011;5106;50.926;7.080;2023-04-21T13:10:33;9.43;;;8.48;;
10132;SDS011;5106;50.926;7.080;2023-04-21T13:12:59;8.95;;;7.90;;
10132;SDS011;5106;50.926;7.080;2023-04-21T13:15:24;8.88;;;7.72;;
10132;SDS011;5106;50.926;7.080;2023-04-21T13:17:50;9.45;;;7.63;;
10132;SDS011;5106;50.926;7.080;2023-04-21T13:20:16;8.35;;;7.50;;
10132;SDS011;5106;50.926;7.080;2023-04-21T13:22:43;7.57;;;6.68;;
10132;SDS011;5106;50.926;7.080;2023-04-21T13:25:09;12.63;;;7.68;;
10132;SDS011;5106;50.926;7.080;2023-04-21T13:27:35;7.93;;;6.85;;
10132;SDS011;5106;50.926;7.080;2023-04-21T13:30:03;10.02;;;7.65;;
10132;SDS011;5106;50.926;7.080;2023-04-21T13:32:31;9.00;;;7.63;;
10132;SDS011;5106;50.926;7.080;2023-04-21T13:34:57;9.98;;;8.00;;
10132;SDS011;5106;50.926;7.080;2023-04-21T13:37:23;9.25;;;7.72;;
10132;SDS011;5106;50.926;7.080;2023-04-21T13:39:48;7.80;;;6.35;;
10132;SDS011;5106;50.926;7.080;2023-04-21T13:42:14;7.07;;;6.35;;
10132;SDS011;5106;50.926;7.080;2023-04-21T13:44:39;8.02;;;6.25;;
10132;SDS011;5106;50.926;7.080;2023-04-21T13:47:05;7.78;;;6.90;;
10132;SDS011;5106;50.926;7.080;2023-04-21T13:49:31;7.13;;;5.85;;
10132;SDS011;5106;50.926;7.080;2023-04-21T13:51:56;6.60;;;5.90;;
10132;SDS011;5106;50.926;7.080;2023-04-21T13:54:22;7.32;;;6.63;;
10132;SDS011;5106;50.926;7.080;2023-04-21T13:56:47;9.93;;;6.53;;
10132;SDS011;5106;50.926;7.080;2023-04-21T13:59:13;7.57;;;6.50;;
10132;SDS011;5106;50.926;7.080;2023-04-21T14:01:40;7.30;;;6.47;;
10132;SDS011;5106;50.926;7.080;2023-04-21T14:04:06;6.80;;;6.07;;
10132;SDS011;5106;50.926;7.080;2023-04-21T14:06:32;6.60;;;5.78;;
10132;SDS011;5106;50.926;7.080;2023-04-21T14:08:57;7.47;;;6.60;;
10132;SDS011;5106;50.926;7.080;2023-04-21T14:11:23;6.63;;;5.97;;
10132;SDS011;5106;50.926;7.080;2023-04-21T14:13:49;9.55;;;5.90;;
10132;SDS011;5106;50.926;7.080;2023-04-21T14:16:14;6.30;;;5.70;;
10132;SDS011;5106;50.926;7.080;2023-04-21T14:18:40;6.95;;;5.68;;
10132;SDS011;5106;50.926;7.080;2023-04-21T14:21:09;6.60;;;4.97;;
10132;SDS011;5106;50.926;7.080;2023-04-21T14:23:35;6.57;;;5.00;;
10132;SDS011;5106;50.926;7.080;2023-04-21T14:26:01;6.15;;;5.13;;
10132;SDS011;5106;50.926;7.080;2023-04-21T14:28:28;5.57;;;5.03;;
10132;SDS011;5106;50.926;7.080;2023-04-21T14:30:53;5.22;;;4.72;;
10132;SDS011;5106;50.926;7.080;2023-04-21T14:33:19;5.85;;;4.97;;
10132;SDS011;5106;50.926;7.080;2023-04-21T14:35:45;5.25;;;4.75;;
10132;SDS011;5106;50.926;7.080;2023-04-21T14:38:10;5.35;;;4.30;;
10132;SDS011;5106;50.926;7.080;2023-04-21T14:40:36;6.00;;;4.88;;
10132;SDS011;5106;50.926;7.080;2023-04-21T14:43:01;6.10;;;4.45;;
10132;SDS011;5106;50.926;7.080;2023-04-21T14:45:27;5.10;;;4.57;;
10132;SDS011;5106;50.926;7.080;2023-04-21T14:47:52;4.63;;;4.22;;
10132;SDS011;5106;50.926;7.080;2023-04-21T14:50:18;5.93;;;4.43;;
10132;SDS011;5106;50.926;7.080;2023-04-21T14:52:44;4.13;;;3.75;;
10132;SDS011;5106;50.926;7.080;2023-04-21T14:55:13;5.00;;;4.00;;